createdAt,value
2022-12-04T00:00:47.872Z,101561.22
2022-12-04T00:03:22.192Z,101558.81
2022-12-04T00:05:49.486Z,101558.59
2022-12-04T00:08:16.351Z,101569.66
2022-12-04T00:10:44.156Z,101569.28
2022-12-04T00:13:11.652Z,101568.41
2022-12-04T00:15:43.321Z,101578.00
2022-12-04T00:18:10.195Z,101579.81
2022-12-04T00:20:40.966Z,101576.91
2022-12-04T00:23:07.959Z,101586.00
2022-12-04T00:25:40.916Z,101576.66
2022-12-04T00:28:08.501Z,101577.22
2022-12-04T00:30:41.225Z,101573.06
2022-12-04T00:33:09.969Z,101580.16
2022-12-04T00:35:37.770Z,101576.53
2022-12-04T00:38:07.283Z,101580.91
2022-12-04T00:40:34.468Z,101590.13
2022-12-04T00:43:01.449Z,101584.59
2022-12-04T00:45:28.769Z,101585.41
2022-12-04T00:47:55.699Z,101583.66
2022-12-04T00:50:23.026Z,101583.66
2022-12-04T00:52:53.331Z,101580.25
2022-12-04T00:55:21.843Z,101574.47
2022-12-04T00:57:48.733Z,101568.03
2022-12-04T01:03:26.385Z,101569.72
2022-12-04T01:05:53.631Z,101564.13
2022-12-04T01:08:20.518Z,101557.34
2022-12-04T01:10:49.094Z,101548.47
2022-12-04T01:13:16.022Z,101553.91
2022-12-04T01:15:44.100Z,101542.88
2022-12-04T01:18:11.417Z,101538.53
2022-12-04T01:20:38.535Z,101559.84
2022-12-04T01:23:05.648Z,101553.25
2022-12-04T01:25:32.878Z,101542.59
2022-12-04T01:28:01.169Z,101543.53
2022-12-04T01:30:28.857Z,101543.72
2022-12-04T01:32:55.790Z,101548.91
2022-12-04T01:35:23.029Z,101551.25
2022-12-04T01:37:49.946Z,101552.75
2022-12-04T01:40:17.569Z,101560.56
2022-12-04T01:42:44.657Z,101549.13
2022-12-04T01:45:43.998Z,101546.66
2022-12-04T01:48:18.375Z,101538.91
2022-12-04T01:50:47.893Z,101547.81
2022-12-04T01:53:15.083Z,101545.88
2022-12-04T01:55:43.929Z,101548.28
2022-12-04T01:58:11.343Z,101552.47
2022-12-04T02:00:38.617Z,101528.53
2022-12-04T02:03:07.023Z,101534.41
2022-12-04T02:05:35.008Z,101534.50
2022-12-04T02:08:05.855Z,101535.47
2022-12-04T02:10:42.710Z,101531.03
2022-12-04T02:13:16.899Z,101523.13
2022-12-04T02:15:52.971Z,101529.50
2022-12-04T02:18:31.758Z,101525.19
2022-12-04T02:21:04.179Z,101527.13
2022-12-04T02:23:55.421Z,101530.59
2022-12-04T02:26:37.643Z,101530.59
2022-12-04T02:29:12.201Z,101533.66
2022-12-04T02:31:46.108Z,101523.56
2022-12-04T02:34:18.198Z,101508.16
2022-12-04T02:36:52.585Z,101516.97
2022-12-04T02:39:25.259Z,101519.03
2022-12-04T02:41:57.356Z,101512.97
2022-12-04T02:44:29.773Z,101505.19
2022-12-04T02:47:00.857Z,101500.06
2022-12-04T02:49:33.140Z,101511.50
2022-12-04T02:52:01.468Z,101507.28
2022-12-04T02:54:34.495Z,101510.06
2022-12-04T02:57:04.725Z,101505.59
2022-12-04T02:59:36.757Z,101508.31
2022-12-04T03:02:16.041Z,101498.66
2022-12-04T03:04:45.307Z,101496.88
2022-12-04T03:07:16.790Z,101493.53
2022-12-04T03:09:47.745Z,101495.25
2022-12-04T03:12:21.224Z,101494.31
2022-12-04T03:14:55.011Z,101488.91
2022-12-04T03:17:27.199Z,101489.84
2022-12-04T03:19:59.353Z,101481.91
2022-12-04T03:22:27.892Z,101485.56
2022-12-04T03:24:56.783Z,101485.78
2022-12-04T03:27:26.541Z,101481.63
2022-12-04T03:30:01.888Z,101479.81
2022-12-04T03:32:34.699Z,101483.25
2022-12-04T03:35:05.331Z,101487.66
2022-12-04T03:37:39.834Z,101481.41
2022-12-04T03:40:15.539Z,101473.38
2022-12-04T03:42:47.430Z,101465.59
2022-12-04T03:45:22.263Z,101459.19
2022-12-04T03:47:56.882Z,101456.56
2022-12-04T03:50:34.183Z,101456.41
2022-12-04T03:53:08.400Z,101464.38
2022-12-04T03:55:43.356Z,101477.69
2022-12-04T03:58:16.372Z,101464.78
2022-12-04T04:00:49.743Z,101471.63
2022-12-04T04:03:22.192Z,101470.53
2022-12-04T04:05:54.500Z,101468.84
2022-12-04T04:08:26.747Z,101470.97
2022-12-04T04:10:59.089Z,101481.91
2022-12-04T04:13:51.034Z,101473.81
2022-12-04T04:16:41.078Z,101490.38
2022-12-04T04:19:28.585Z,101497.03
2022-12-04T04:22:17.758Z,101490.63
2022-12-04T04:24:50.443Z,101487.56
2022-12-04T04:27:17.344Z,101491.59
2022-12-04T04:29:51.861Z,101500.34
2022-12-04T04:32:28.745Z,101499.34
2022-12-04T04:35:03.683Z,101505.66
2022-12-04T04:37:40.130Z,101491.13
2022-12-04T04:40:13.857Z,101504.25
2022-12-04T04:42:50.360Z,101503.63
2022-12-04T04:45:23.446Z,101491.69
2022-12-04T04:47:56.637Z,101491.91
2022-12-04T04:50:24.334Z,101495.44
2022-12-04T04:52:56.821Z,101499.72
2022-12-04T04:55:24.578Z,101485.63
2022-12-04T04:57:51.531Z,101501.50
2022-12-04T05:00:21.302Z,101507.59
2022-12-04T05:02:50.222Z,101487.13
2022-12-04T05:05:19.089Z,101497.59
2022-12-04T05:07:46.068Z,101506.47
2022-12-04T05:10:14.089Z,101502.84
2022-12-04T05:12:41.018Z,101503.00
2022-12-04T05:15:10.981Z,101496.03
2022-12-04T05:17:37.869Z,101494.19
2022-12-04T05:20:06.614Z,101464.88
2022-12-04T05:22:36.850Z,101494.03
2022-12-04T05:25:05.657Z,101478.50
2022-12-04T05:27:32.780Z,101480.78
2022-12-04T05:30:00.143Z,101479.91
2022-12-04T05:32:29.034Z,101490.13
2022-12-04T05:34:57.089Z,101492.75
2022-12-04T05:37:24.108Z,101489.19
2022-12-04T05:39:52.891Z,101493.25
2022-12-04T05:42:20.536Z,101491.53
2022-12-04T05:44:50.983Z,101496.09
2022-12-04T05:47:17.965Z,101494.31
2022-12-04T05:49:45.099Z,101499.59
2022-12-04T05:52:12.309Z,101502.44
2022-12-04T05:54:42.364Z,101500.63
2022-12-04T05:57:10.743Z,101498.94
2022-12-04T05:59:38.049Z,101487.66
2022-12-04T06:02:05.139Z,101493.31
2022-12-04T06:04:32.413Z,101493.19
2022-12-04T06:06:59.520Z,101491.50
2022-12-04T06:09:26.828Z,101484.38
2022-12-04T06:11:59.825Z,101490.41
2022-12-04T06:14:39.314Z,101494.44
2022-12-04T06:17:06.907Z,101493.47
2022-12-04T06:19:34.201Z,101490.59
2022-12-04T06:22:01.074Z,101485.28
2022-12-04T06:24:28.375Z,101486.00
2022-12-04T06:27:27.431Z,101486.69
2022-12-04T06:29:46.424Z,101479.22
2022-12-04T06:32:17.919Z,101478.09
2022-12-04T06:34:46.795Z,101479.66
2022-12-04T06:37:13.670Z,101483.16
2022-12-04T06:39:40.965Z,101484.63
2022-12-04T06:42:07.848Z,101489.34
2022-12-04T06:44:35.687Z,101487.44
2022-12-04T06:47:05.764Z,101489.69
2022-12-04T06:49:33.068Z,101484.34
2022-12-04T06:52:02.388Z,101463.84
2022-12-04T06:54:29.805Z,101463.09
2022-12-04T06:56:57.947Z,101458.81
2022-12-04T06:59:25.100Z,101465.41
2022-12-04T07:01:52.149Z,101475.63
2022-12-04T07:04:21.020Z,101481.03
2022-12-04T07:06:47.936Z,101476.59
2022-12-04T07:09:17.451Z,101472.13
2022-12-04T07:11:55.080Z,101465.88
2022-12-04T07:14:24.689Z,101471.56
2022-12-04T07:16:51.649Z,101464.06
2022-12-04T07:19:19.048Z,101474.09
2022-12-04T07:21:58.631Z,101477.03
2022-12-04T07:24:26.049Z,101475.81
2022-12-04T07:26:52.861Z,101483.66
2022-12-04T07:29:20.123Z,101481.78
2022-12-04T07:31:47.231Z,101477.81
2022-12-04T07:34:17.539Z,101455.00
2022-12-04T07:36:44.572Z,101475.72
2022-12-04T07:39:13.215Z,101484.78
2022-12-04T07:41:40.160Z,101487.00
2022-12-04T07:44:07.308Z,101475.63
2022-12-04T07:46:34.368Z,101477.94
2022-12-04T07:49:01.986Z,101489.00
2022-12-04T07:51:29.837Z,101484.84
2022-12-04T07:54:02.857Z,101483.97
2022-12-04T07:56:31.810Z,101483.03
2022-12-04T07:59:00.201Z,101483.56
2022-12-04T08:01:27.133Z,101490.84
2022-12-04T08:03:57.351Z,101497.81
2022-12-04T08:06:26.473Z,101503.88
2022-12-04T08:08:54.122Z,101492.84
2022-12-04T08:11:22.806Z,101485.63
2022-12-04T08:13:55.062Z,101491.16
2022-12-04T08:16:22.470Z,101482.00
2022-12-04T08:18:49.791Z,101472.34
2022-12-04T08:21:20.539Z,101478.44
2022-12-04T08:23:49.626Z,101474.16
2022-12-04T08:26:17.046Z,101479.03
2022-12-04T08:28:45.431Z,101487.63
2022-12-04T08:31:16.005Z,101483.38
2022-12-04T08:33:44.792Z,101479.28
2022-12-04T08:36:14.306Z,101492.34
2022-12-04T08:38:41.956Z,101477.31
2022-12-04T08:41:12.256Z,101483.38
2022-12-04T08:43:39.681Z,101480.41
2022-12-04T08:46:08.525Z,101485.13
2022-12-04T08:48:37.417Z,101482.59
2022-12-04T08:51:05.128Z,101485.13
2022-12-04T08:53:32.424Z,101473.41
2022-12-04T08:56:00.864Z,101472.94
2022-12-04T08:58:28.335Z,101478.31
2022-12-04T09:00:55.432Z,101483.56
2022-12-04T09:03:29.179Z,101474.25
2022-12-04T09:06:00.938Z,101463.31
2022-12-04T09:08:28.424Z,101463.22
2022-12-04T09:10:55.457Z,101458.88
2022-12-04T09:13:22.637Z,101448.34
2022-12-04T09:15:49.564Z,101455.72
2022-12-04T09:18:16.826Z,101455.72
2022-12-04T09:20:43.773Z,101448.44
2022-12-04T09:23:12.283Z,101450.78
2022-12-04T09:25:39.198Z,101452.13
2022-12-04T09:28:06.394Z,101439.66
2022-12-04T09:30:33.387Z,101436.81
2022-12-04T09:33:00.616Z,101426.53
2022-12-04T09:35:27.533Z,101429.91
2022-12-04T09:37:54.884Z,101414.69
2022-12-04T09:40:33.455Z,101400.06
2022-12-04T09:43:18.292Z,101412.16
2022-12-04T09:45:50.796Z,101408.59
2022-12-04T09:48:19.818Z,101417.38
2022-12-04T09:50:48.928Z,101409.09
2022-12-04T09:53:21.551Z,101406.97
2022-12-04T09:55:56.172Z,101405.59
2022-12-04T09:58:32.635Z,101411.09
2022-12-04T10:01:03.180Z,101404.84
2022-12-04T10:03:31.028Z,101410.03
2022-12-04T10:06:05.435Z,101398.22
2022-12-04T10:08:36.004Z,101389.59
2022-12-04T10:11:12.650Z,101393.31
2022-12-04T10:14:03.047Z,101386.56
2022-12-04T10:16:45.133Z,101384.84
2022-12-04T10:19:21.914Z,101385.59
2022-12-04T10:22:01.888Z,101378.56
2022-12-04T10:24:40.685Z,101385.72
2022-12-04T10:27:19.814Z,101377.81
2022-12-04T10:29:50.649Z,101380.00
2022-12-04T10:32:21.549Z,101374.13
2022-12-04T10:48:05.551Z,101335.19
2022-12-04T10:50:32.704Z,101327.50
2022-12-04T10:52:59.776Z,101327.59
2022-12-04T10:55:34.089Z,101323.16
2022-12-04T10:58:02.813Z,101307.56
2022-12-04T11:00:33.653Z,101313.84
2022-12-04T11:03:09.192Z,101308.28
2022-12-04T11:05:44.998Z,101294.19
2022-12-04T11:08:21.760Z,101304.56
2022-12-04T11:10:58.054Z,101298.38
2022-12-04T11:13:26.283Z,101299.94
2022-12-04T11:16:02.104Z,101289.56
2022-12-04T11:18:32.779Z,101294.06
2022-12-04T11:21:05.086Z,101295.00
2022-12-04T11:23:35.028Z,101290.53
2022-12-04T11:26:06.271Z,101280.28
2022-12-04T11:28:43.088Z,101290.41
2022-12-04T11:31:21.275Z,101285.72
2022-12-04T11:33:56.000Z,101285.34
2022-12-04T11:36:34.215Z,101280.25
2022-12-04T11:39:07.469Z,101280.38
2022-12-04T11:41:34.998Z,101284.97
2022-12-04T11:44:02.170Z,101283.03
2022-12-04T11:46:31.424Z,101281.94
2022-12-04T11:49:03.881Z,101277.13
2022-12-04T11:51:48.088Z,101269.63
2022-12-04T11:54:24.379Z,101273.25
2022-12-04T11:57:04.109Z,101276.13
2022-12-04T11:59:59.588Z,101272.97
2022-12-04T12:02:42.326Z,101282.91
2022-12-04T12:05:25.098Z,101292.94
2022-12-04T12:08:02.928Z,101277.72
2022-12-04T12:10:44.413Z,101274.56
2022-12-04T12:13:19.347Z,101277.94
2022-12-04T12:15:56.618Z,101274.09
2022-12-04T12:18:46.360Z,101264.47
2022-12-04T12:21:21.544Z,101261.88
2022-12-04T12:24:08.426Z,101280.25
2022-12-04T12:26:45.275Z,101258.41
2022-12-04T12:29:35.762Z,101271.31
2022-12-04T12:32:21.616Z,101270.13
2022-12-04T12:34:54.837Z,101265.28
2022-12-04T12:37:32.419Z,101255.13
2022-12-04T12:40:03.244Z,101252.81
2022-12-04T12:42:34.623Z,101252.22
2022-12-04T12:45:06.690Z,101269.50
2022-12-04T12:47:41.028Z,101269.03
2022-12-04T12:50:18.427Z,101272.13
2022-12-04T12:52:55.887Z,101252.00
2022-12-04T12:55:25.791Z,101260.44
2022-12-04T12:58:00.601Z,101269.84
2022-12-04T13:00:32.303Z,101280.69
2022-12-04T13:03:06.383Z,101283.13
2022-12-04T13:05:39.573Z,101278.44
2022-12-04T13:08:18.115Z,101275.91
2022-12-04T13:10:54.612Z,101269.75
2022-12-04T13:13:26.053Z,101272.84
2022-12-04T13:16:01.600Z,101270.88
2022-12-04T13:18:38.236Z,101274.28
2022-12-04T13:21:16.248Z,101281.78
2022-12-04T13:23:57.639Z,101266.47
2022-12-04T13:26:41.691Z,101289.94
2022-12-04T13:29:18.689Z,101289.66
2022-12-04T13:31:54.011Z,101303.69
2022-12-04T13:34:43.719Z,101292.53
2022-12-04T13:37:30.488Z,101305.13
2022-12-04T13:40:27.029Z,101302.97
2022-12-04T13:43:18.754Z,101307.56
2022-12-04T13:45:47.102Z,101313.97
2022-12-04T13:48:17.298Z,101308.16
2022-12-04T13:50:44.246Z,101283.78
2022-12-04T13:53:33.923Z,101313.25
2022-12-04T13:56:07.534Z,101319.31
2022-12-04T13:58:41.807Z,101311.91
2022-12-04T14:01:27.441Z,101322.56
2022-12-04T14:03:57.489Z,101317.97
2022-12-04T14:06:28.078Z,101322.06
2022-12-04T14:08:58.409Z,101331.47
2022-12-04T14:11:32.921Z,101337.03
2022-12-04T14:14:08.257Z,101340.53
2022-12-04T14:16:42.098Z,101337.13
2022-12-04T14:19:28.280Z,101332.03
2022-12-04T14:21:55.343Z,101329.28
2022-12-04T14:24:30.930Z,101338.19
2022-12-04T14:27:11.818Z,101348.81
2022-12-04T14:29:49.579Z,101349.97
2022-12-04T14:32:23.485Z,101344.56
2022-12-04T14:34:53.911Z,101361.72
2022-12-04T14:37:27.982Z,101355.91
2022-12-04T14:39:59.807Z,101350.44
2022-12-04T14:42:36.350Z,101348.75
2022-12-04T14:45:25.683Z,101342.31
2022-12-04T14:48:20.800Z,101333.03
2022-12-04T14:50:57.512Z,101356.66
2022-12-04T14:53:36.404Z,101360.31
2022-12-04T14:56:19.079Z,101374.84
2022-12-04T14:58:46.601Z,101367.34
2022-12-04T15:01:28.940Z,101363.34
2022-12-04T15:04:10.463Z,101363.78
2022-12-04T15:06:39.444Z,101365.94
2022-12-04T15:09:36.939Z,101368.69
2022-12-04T15:12:37.964Z,101359.66
2022-12-04T15:15:18.602Z,101362.03
2022-12-04T15:17:58.444Z,101357.16
2022-12-04T15:20:26.713Z,101367.16
2022-12-04T15:22:57.383Z,101366.88
2022-12-04T15:25:28.747Z,101367.31
2022-12-04T15:28:05.891Z,101359.50
2022-12-04T15:30:37.836Z,101355.97
2022-12-04T15:33:21.233Z,101357.78
2022-12-04T15:35:53.879Z,101363.06
2022-12-04T15:38:23.996Z,101364.91
2022-12-04T15:40:54.788Z,101358.09
2022-12-04T15:43:33.578Z,101360.03
2022-12-04T15:46:11.764Z,101365.31
2022-12-04T15:48:45.018Z,101364.59
2022-12-04T15:51:16.750Z,101359.41
2022-12-04T15:53:45.816Z,101345.94
2022-12-04T15:56:17.923Z,101350.19
2022-12-04T15:59:02.909Z,101355.16
2022-12-04T16:01:44.390Z,101359.81
2022-12-04T16:04:25.150Z,101360.16
2022-12-04T16:06:56.371Z,101360.78
2022-12-04T16:09:25.330Z,101368.94
2022-12-04T16:11:59.807Z,101370.03
2022-12-04T16:14:27.280Z,101369.16
2022-12-04T16:17:05.520Z,101365.00
2022-12-04T16:19:36.849Z,101385.06
2022-12-04T16:22:13.298Z,101385.78
2022-12-04T16:24:40.468Z,101370.84
2022-12-04T16:27:11.170Z,101387.59
2022-12-04T16:29:38.514Z,101379.53
2022-12-04T16:32:09.057Z,101390.88
2022-12-04T16:34:52.309Z,101364.94
2022-12-04T16:37:22.360Z,101393.53
2022-12-04T16:39:52.923Z,101386.66
2022-12-04T16:42:24.270Z,101390.56
2022-12-04T16:44:51.633Z,101391.22
2022-12-04T16:47:19.537Z,101390.78
2022-12-04T16:49:48.969Z,101380.59
2022-12-04T16:52:26.951Z,101397.56
2022-12-04T16:54:58.482Z,101392.56
2022-12-04T16:57:29.528Z,101400.53
2022-12-04T17:00:01.605Z,101392.88
2022-12-04T17:02:31.990Z,101395.63
2022-12-04T17:05:01.303Z,101394.47
2022-12-04T17:07:37.901Z,101391.41
2022-12-04T17:10:06.147Z,101387.06
2022-12-04T17:12:44.111Z,101397.00
2022-12-04T17:15:12.476Z,101398.16
2022-12-04T17:17:42.344Z,101396.66
2022-12-04T17:20:13.226Z,101403.63
2022-12-04T17:22:47.384Z,101403.41
2022-12-04T17:25:17.673Z,101397.34
2022-12-04T17:27:45.313Z,101395.22
2022-12-04T17:30:15.996Z,101413.44
2022-12-04T17:32:47.733Z,101421.13
2022-12-04T17:35:17.809Z,101404.47
2022-12-04T17:37:47.645Z,101406.03
2022-12-04T17:40:31.238Z,101397.53
2022-12-04T17:43:01.441Z,101400.28
2022-12-04T17:45:28.755Z,101405.78
2022-12-04T17:47:56.158Z,101392.75
2022-12-04T17:50:25.770Z,101383.31
2022-12-04T17:52:57.816Z,101412.47
2022-12-04T17:55:31.732Z,101407.91
2022-12-04T17:58:05.755Z,101381.72
2022-12-04T18:00:32.672Z,101399.63
2022-12-04T18:02:59.976Z,101396.34
2022-12-04T18:05:28.676Z,101405.31
2022-12-04T18:07:59.793Z,101399.47
2022-12-04T18:10:26.868Z,101398.72
2022-12-04T18:12:56.285Z,101409.00
2022-12-04T18:15:23.883Z,101413.47
2022-12-04T18:20:35.271Z,101410.56
2022-12-04T18:23:03.958Z,101410.69
2022-12-04T18:25:30.942Z,101419.75
2022-12-04T18:28:01.129Z,101425.31
2022-12-04T18:30:31.048Z,101425.31
2022-12-04T18:33:03.609Z,101418.50
2022-12-04T18:35:32.990Z,101426.25
2022-12-04T18:38:04.555Z,101428.41
2022-12-04T18:40:34.453Z,101428.63
2022-12-04T18:43:01.683Z,101434.00
2022-12-04T18:45:28.751Z,101427.50
2022-12-04T18:47:57.852Z,101432.19
2022-12-04T18:50:24.718Z,101417.03
2022-12-04T18:53:00.898Z,101430.03
2022-12-04T18:55:31.059Z,101427.69
2022-12-04T18:57:58.189Z,101436.94
2022-12-04T19:00:25.181Z,101440.31
2022-12-04T19:02:52.522Z,101443.25
2022-12-04T19:05:19.672Z,101434.66
2022-12-04T19:07:49.629Z,101430.63
2022-12-04T19:10:18.393Z,101434.28
2022-12-04T19:12:46.824Z,101443.44
2022-12-04T19:15:13.838Z,101436.56
2022-12-04T19:17:41.104Z,101437.78
2022-12-04T19:20:09.689Z,101445.78
2022-12-04T19:22:40.140Z,101445.69
2022-12-04T19:25:07.296Z,101449.56
2022-12-04T19:27:41.255Z,101452.84
2022-12-04T19:30:15.796Z,101444.34
2022-12-04T19:32:42.956Z,101461.16
2022-12-04T19:35:10.201Z,101463.81
2022-12-04T19:37:42.860Z,101457.97
2022-12-04T19:40:16.161Z,101464.50
2022-12-04T19:43:02.602Z,101472.59
2022-12-04T19:45:31.483Z,101470.22
2022-12-04T19:48:05.893Z,101471.63
2022-12-04T19:50:33.300Z,101478.22
2022-12-04T19:53:00.466Z,101472.28
2022-12-04T19:55:37.174Z,101462.38
2022-12-04T19:58:05.928Z,101475.41
2022-12-04T20:00:35.331Z,101479.84
2022-12-04T20:03:04.005Z,101475.88
2022-12-04T20:05:31.088Z,101467.31
2022-12-04T20:10:35.432Z,101476.28
2022-12-04T20:13:02.729Z,101484.19
2022-12-04T20:15:29.697Z,101493.34
2022-12-04T20:18:00.751Z,101487.69
2022-12-04T20:20:27.777Z,101489.88
2022-12-04T20:22:57.916Z,101479.84
2022-12-04T20:25:24.858Z,101495.31
2022-12-04T20:27:58.860Z,101489.09
2022-12-04T20:30:28.227Z,101487.88
2022-12-04T20:33:02.495Z,101487.75
2022-12-04T20:35:29.403Z,101484.00
2022-12-04T20:37:57.680Z,101489.28
2022-12-04T20:40:25.672Z,101490.50
2022-12-04T20:42:55.180Z,101495.19
2022-12-04T20:45:24.737Z,101497.66
2022-12-04T20:47:51.979Z,101491.75
2022-12-04T20:50:22.621Z,101502.34
2022-12-04T20:52:52.739Z,101494.50
2022-12-04T20:55:25.793Z,101494.78
2022-12-04T20:57:57.282Z,101492.06
2022-12-04T21:00:27.809Z,101491.84
2022-12-04T21:02:54.929Z,101491.19
2022-12-04T21:05:23.236Z,101495.38
2022-12-04T21:07:59.103Z,101496.56
2022-12-04T21:10:26.577Z,101496.44
2022-12-04T21:13:12.423Z,101494.22
2022-12-04T21:15:59.871Z,101498.34
2022-12-04T21:18:27.596Z,101488.94
2022-12-04T21:20:57.248Z,101481.78
2022-12-04T21:23:27.437Z,101503.34
2022-12-04T21:25:55.393Z,101501.47
2022-12-04T21:28:22.601Z,101499.66
2022-12-04T21:30:51.003Z,101486.16
2022-12-04T21:33:18.481Z,101500.44
2022-12-04T21:35:47.960Z,101501.91
2022-12-04T21:38:19.309Z,101498.19
2022-12-04T21:40:51.125Z,101493.97
2022-12-04T21:43:22.980Z,101496.63
2022-12-04T21:45:57.316Z,101502.94
2022-12-04T21:48:26.179Z,101504.81
2022-12-04T21:50:58.084Z,101502.28
2022-12-04T21:53:26.965Z,101505.19
2022-12-04T21:55:57.341Z,101506.72
2022-12-04T21:58:25.860Z,101510.09
2022-12-04T22:00:55.849Z,101505.69
2022-12-04T22:03:23.886Z,101511.63
2022-12-04T22:05:59.335Z,101503.22
2022-12-04T22:08:31.580Z,101507.03
2022-12-04T22:10:58.305Z,101512.78
2022-12-04T22:13:26.626Z,101508.06
2022-12-04T22:15:53.635Z,101507.75
2022-12-04T22:18:24.954Z,101513.78
2022-12-04T22:20:52.238Z,101506.91
2022-12-04T22:23:19.386Z,101503.72
2022-12-04T22:25:48.109Z,101508.59
2022-12-04T22:28:16.515Z,101491.47
2022-12-04T22:30:48.437Z,101500.38
2022-12-04T22:33:15.729Z,101504.66
2022-12-04T22:35:42.578Z,101501.78
2022-12-04T22:38:12.660Z,101499.72
2022-12-04T22:40:42.267Z,101502.16
2022-12-04T22:43:10.752Z,101480.41
2022-12-04T22:45:37.663Z,101504.16
2022-12-04T22:48:05.456Z,101504.81
2022-12-04T22:50:32.396Z,101493.25
2022-12-04T22:52:59.600Z,101486.50
2022-12-04T22:55:26.493Z,101501.50
2022-12-04T22:57:54.658Z,101497.25
2022-12-04T23:00:26.497Z,101496.44
2022-12-04T23:02:54.779Z,101492.44
2022-12-04T23:05:21.809Z,101494.44
2022-12-04T23:07:53.424Z,101504.66
2022-12-04T23:10:25.223Z,101497.53
2022-12-04T23:12:54.238Z,101501.16
2022-12-04T23:15:21.181Z,101497.91
2022-12-04T23:17:49.814Z,101493.13
2022-12-04T23:20:20.104Z,101501.06
2022-12-04T23:22:54.725Z,101501.34
2022-12-04T23:25:25.068Z,101489.16
2022-12-04T23:27:53.416Z,101498.06
2022-12-04T23:30:28.503Z,101495.63
2022-12-04T23:32:59.173Z,101492.22
2022-12-04T23:35:26.173Z,101479.78
2022-12-04T23:37:53.503Z,101498.09
2022-12-04T23:40:20.600Z,101496.19
2022-12-04T23:42:49.833Z,101498.19
2022-12-04T23:45:16.876Z,101483.66
2022-12-04T23:47:47.553Z,101487.25
2022-12-04T23:50:15.916Z,101497.66
2022-12-04T23:52:46.467Z,101491.03
2022-12-04T23:55:18.692Z,101485.44
2022-12-04T23:57:48.007Z,101484.38
